Kollum, Netherlands
Current Conditions -  °F | °C
As of 6:57 AM on Monday 22 Dec 2014 (Local Time) from EHLW Reporting Station
Overcast Overcast  
Wind Chill: 52°   Ceiling: 900
Heat Index: 52°   Visibility: 6mi
Dew Point: 50°   Wind: 22mph
Humidity: 94%   Direction: 240°WSW
Pressure: 29.83"   Gusts: 36mph
Location:  53.28°N, 6.15°E
Report Text: EHLW 220557Z AUTO 24019G31KT 9999 BKN009 OVC011 11/10 Q1010 GRN 24020G32KT 9999 BN009 OVC010
Loading
Personal Weather Stations






























Interactive Weather Map New forecast layout! Learn more

10-Day Weather Forecast

Advertisements
Track Severe Weather on mobile